Terminal Aerodrome Forecast
Issued by NWS

Home | Current Version | Previous Version | Text Only | Print | Product List | Glossary On
Versions: 1 2 3 4 5 6 7 8 9 10 11 12 13 14 15 16
000
FTUS46 KOTX 251906 AAA
TAFPUW
TAF AMD
KPUW 251906Z 2519/2618 26006KT P6SM BKN028 BKN060
     FM252000 27009KT P6SM SCT050 BKN070
     FM260200 24004KT P6SM FEW060
     FM261500 25008KT P6SM SCT150 BKN200=

USA.gov is the U.S. government's official web portal to all federal, state and local government web resources and services.